sensor_id;sensor_type;location;lat;lon;timestamp;P1;durP1;ratioP1;P2;durP2;ratioP2
13222;SDS011;6676;45.192;5.722;2023-07-31T00:01:20;1.98;;;0.90;;
13222;SDS011;6676;45.192;5.722;2023-07-31T00:04:12;1.40;;;0.90;;
13222;SDS011;6676;45.192;5.722;2023-07-31T00:07:04;1.50;;;1.10;;
13222;SDS011;6676;45.192;5.722;2023-07-31T00:09:55;1.65;;;1.07;;
13222;SDS011;6676;45.192;5.722;2023-07-31T00:12:47;2.08;;;1.20;;
13222;SDS011;6676;45.192;5.722;2023-07-31T00:15:38;2.35;;;1.10;;
13222;SDS011;6676;45.192;5.722;2023-07-31T00:18:29;2.67;;;1.10;;
13222;SDS011;6676;45.192;5.722;2023-07-31T00:23:58;1.77;;;1.07;;
13222;SDS011;6676;45.192;5.722;2023-07-31T00:26:50;3.08;;;1.35;;
13222;SDS011;6676;45.192;5.722;2023-07-31T00:29:41;1.70;;;0.90;;
13222;SDS011;6676;45.192;5.722;2023-07-31T00:32:32;1.57;;;0.98;;
13222;SDS011;6676;45.192;5.722;2023-07-31T00:35:23;2.47;;;1.10;;
13222;SDS011;6676;45.192;5.722;2023-07-31T00:38:17;1.72;;;0.93;;
13222;SDS011;6676;45.192;5.722;2023-07-31T00:43:47;2.10;;;1.10;;
13222;SDS011;6676;45.192;5.722;2023-07-31T00:49:16;1.85;;;0.80;;
13222;SDS011;6676;45.192;5.722;2023-07-31T00:52:09;2.37;;;1.00;;
13222;SDS011;6676;45.192;5.722;2023-07-31T00:55:01;1.90;;;0.80;;
13222;SDS011;6676;45.192;5.722;2023-07-31T00:57:57;3.12;;;1.20;;
13222;SDS011;6676;45.192;5.722;2023-07-31T01:00:48;2.65;;;0.80;;
13222;SDS011;6676;45.192;5.722;2023-07-31T01:03:42;1.80;;;1.10;;
13222;SDS011;6676;45.192;5.722;2023-07-31T01:06:35;2.22;;;1.17;;
13222;SDS011;6676;45.192;5.722;2023-07-31T01:09:31;4.25;;;1.30;;
13222;SDS011;6676;45.192;5.722;2023-07-31T01:12:28;3.98;;;1.07;;
13222;SDS011;6676;45.192;5.722;2023-07-31T01:15:09;2.05;;;1.00;;
13222;SDS011;6676;45.192;5.722;2023-07-31T01:18:05;2.12;;;1.30;;
13222;SDS011;6676;45.192;5.722;2023-07-31T01:20:59;2.52;;;1.35;;
13222;SDS011;6676;45.192;5.722;2023-07-31T01:23:49;2.55;;;1.05;;
13222;SDS011;6676;45.192;5.722;2023-07-31T01:29:42;2.52;;;1.55;;
13222;SDS011;6676;45.192;5.722;2023-07-31T01:32:36;3.65;;;1.22;;
13222;SDS011;6676;45.192;5.722;2023-07-31T01:38:07;2.72;;;1.10;;
13222;SDS011;6676;45.192;5.722;2023-07-31T01:43:37;3.47;;;1.00;;
13222;SDS011;6676;45.192;5.722;2023-07-31T01:46:28;1.95;;;1.02;;
13222;SDS011;6676;45.192;5.722;2023-07-31T01:49:19;1.95;;;1.25;;
13222;SDS011;6676;45.192;5.722;2023-07-31T01:52:11;3.12;;;1.17;;
13222;SDS011;6676;45.192;5.722;2023-07-31T01:54:51;2.00;;;1.40;;
13222;SDS011;6676;45.192;5.722;2023-07-31T02:00:20;2.60;;;1.20;;
13222;SDS011;6676;45.192;5.722;2023-07-31T02:03:13;3.60;;;0.90;;
13222;SDS011;6676;45.192;5.722;2023-07-31T02:06:05;2.60;;;1.10;;
13222;SDS011;6676;45.192;5.722;2023-07-31T02:08:56;3.25;;;1.17;;
13222;SDS011;6676;45.192;5.722;2023-07-31T02:11:47;1.15;;;0.98;;
13222;SDS011;6676;45.192;5.722;2023-07-31T02:14:38;1.67;;;1.05;;
13222;SDS011;6676;45.192;5.722;2023-07-31T02:17:31;3.05;;;0.90;;
13222;SDS011;6676;45.192;5.722;2023-07-31T02:23:00;2.25;;;1.10;;
13222;SDS011;6676;45.192;5.722;2023-07-31T02:28:30;2.75;;;1.20;;
13222;SDS011;6676;45.192;5.722;2023-07-31T02:31:22;2.45;;;1.17;;
13222;SDS011;6676;45.192;5.722;2023-07-31T02:34:12;2.25;;;1.50;;
13222;SDS011;6676;45.192;5.722;2023-07-31T02:37:04;3.15;;;1.30;;
13222;SDS011;6676;45.192;5.722;2023-07-31T02:39:56;2.10;;;1.20;;
13222;SDS011;6676;45.192;5.722;2023-07-31T02:42:48;1.87;;;1.20;;
13222;SDS011;6676;45.192;5.722;2023-07-31T02:45:39;2.00;;;1.10;;
13222;SDS011;6676;45.192;5.722;2023-07-31T02:48:31;2.77;;;1.25;;
13222;SDS011;6676;45.192;5.722;2023-07-31T02:51:22;2.67;;;1.20;;
13222;SDS011;6676;45.192;5.722;2023-07-31T02:54:13;2.98;;;1.30;;
13222;SDS011;6676;45.192;5.722;2023-07-31T02:57:05;2.08;;;1.40;;
13222;SDS011;6676;45.192;5.722;2023-07-31T02:59:56;2.58;;;1.25;;
13222;SDS011;6676;45.192;5.722;2023-07-31T03:05:26;2.95;;;1.25;;
13222;SDS011;6676;45.192;5.722;2023-07-31T03:08:17;2.22;;;1.12;;
13222;SDS011;6676;45.192;5.722;2023-07-31T03:13:49;2.62;;;1.17;;
13222;SDS011;6676;45.192;5.722;2023-07-31T03:16:40;2.58;;;1.20;;
13222;SDS011;6676;45.192;5.722;2023-07-31T03:19:32;1.92;;;1.07;;
13222;SDS011;6676;45.192;5.722;2023-07-31T03:22:23;2.00;;;1.00;;
13222;SDS011;6676;45.192;5.722;2023-07-31T03:25:14;2.20;;;1.30;;
13222;SDS011;6676;45.192;5.722;2023-07-31T03:28:06;2.25;;;1.20;;
13222;SDS011;6676;45.192;5.722;2023-07-31T03:30:57;2.00;;;1.10;;
13222;SDS011;6676;45.192;5.722;2023-07-31T03:33:50;3.15;;;1.10;;
13222;SDS011;6676;45.192;5.722;2023-07-31T03:36:41;2.52;;;1.30;;
13222;SDS011;6676;45.192;5.722;2023-07-31T03:39:33;2.08;;;1.20;;
13222;SDS011;6676;45.192;5.722;2023-07-31T03:42:24;2.27;;;1.30;;
13222;SDS011;6676;45.192;5.722;2023-07-31T03:47:54;2.60;;;1.00;;
13222;SDS011;6676;45.192;5.722;2023-07-31T03:50:46;4.28;;;1.22;;
13222;SDS011;6676;45.192;5.722;2023-07-31T03:53:37;2.98;;;1.20;;
13222;SDS011;6676;45.192;5.722;2023-07-31T03:56:28;3.83;;;1.50;;
13222;SDS011;6676;45.192;5.722;2023-07-31T03:59:21;5.28;;;1.35;;
13222;SDS011;6676;45.192;5.722;2023-07-31T04:02:01;2.08;;;1.02;;
13222;SDS011;6676;45.192;5.722;2023-07-31T04:04:53;2.50;;;1.42;;
13222;SDS011;6676;45.192;5.722;2023-07-31T04:07:44;2.80;;;1.05;;
13222;SDS011;6676;45.192;5.722;2023-07-31T04:13:14;2.37;;;1.12;;
13222;SDS011;6676;45.192;5.722;2023-07-31T04:18:44;2.52;;;1.30;;
13222;SDS011;6676;45.192;5.722;2023-07-31T04:21:35;1.80;;;1.20;;
13222;SDS011;6676;45.192;5.722;2023-07-31T04:24:26;1.70;;;0.93;;
13222;SDS011;6676;45.192;5.722;2023-07-31T04:30:00;2.37;;;1.22;;
13222;SDS011;6676;45.192;5.722;2023-07-31T04:32:51;2.40;;;1.15;;
13222;SDS011;6676;45.192;5.722;2023-07-31T04:35:46;3.58;;;1.32;;
13222;SDS011;6676;45.192;5.722;2023-07-31T04:38:40;2.37;;;1.25;;
13222;SDS011;6676;45.192;5.722;2023-07-31T04:41:31;1.60;;;1.50;;
13222;SDS011;6676;45.192;5.722;2023-07-31T04:44:23;3.12;;;1.50;;
13222;SDS011;6676;45.192;5.722;2023-07-31T04:47:14;3.12;;;1.47;;
13222;SDS011;6676;45.192;5.722;2023-07-31T04:50:06;4.37;;;1.50;;
13222;SDS011;6676;45.192;5.722;2023-07-31T04:52:58;3.72;;;1.50;;
13222;SDS011;6676;45.192;5.722;2023-07-31T05:05:16;4.95;;;1.27;;
13222;SDS011;6676;45.192;5.722;2023-07-31T05:08:34;3.60;;;1.47;;
13222;SDS011;6676;45.192;5.722;2023-07-31T05:11:58;2.27;;;1.40;;
13222;SDS011;6676;45.192;5.722;2023-07-31T05:14:52;2.50;;;1.32;;
13222;SDS011;6676;45.192;5.722;2023-07-31T05:17:43;4.65;;;1.22;;
13222;SDS011;6676;45.192;5.722;2023-07-31T05:20:34;2.98;;;1.40;;
13222;SDS011;6676;45.192;5.722;2023-07-31T05:23:26;3.22;;;1.45;;
13222;SDS011;6676;45.192;5.722;2023-07-31T05:26:17;5.33;;;1.52;;
13222;SDS011;6676;45.192;5.722;2023-07-31T05:29:08;2.87;;;1.55;;
13222;SDS011;6676;45.192;5.722;2023-07-31T05:32:00;2.72;;;1.42;;
13222;SDS011;6676;45.192;5.722;2023-07-31T05:34:51;4.00;;;1.37;;
13222;SDS011;6676;45.192;5.722;2023-07-31T05:40:27;1.90;;;1.30;;
13222;SDS011;6676;45.192;5.722;2023-07-31T05:43:18;2.55;;;1.52;;
13222;SDS011;6676;45.192;5.722;2023-07-31T05:46:09;1.95;;;1.35;;
13222;SDS011;6676;45.192;5.722;2023-07-31T05:49:01;3.55;;;1.60;;
13222;SDS011;6676;45.192;5.722;2023-07-31T05:51:52;3.02;;;1.37;;
13222;SDS011;6676;45.192;5.722;2023-07-31T05:54:44;2.20;;;1.60;;
13222;SDS011;6676;45.192;5.722;2023-07-31T05:57:35;2.83;;;1.50;;
13222;SDS011;6676;45.192;5.722;2023-07-31T06:02:54;3.25;;;1.72;;
13222;SDS011;6676;45.192;5.722;2023-07-31T06:08:27;3.10;;;1.50;;
13222;SDS011;6676;45.192;5.722;2023-07-31T06:13:56;2.65;;;1.52;;
13222;SDS011;6676;45.192;5.722;2023-07-31T06:16:47;2.75;;;1.70;;
13222;SDS011;6676;45.192;5.722;2023-07-31T06:19:39;4.83;;;1.90;;
13222;SDS011;6676;45.192;5.722;2023-07-31T06:22:30;4.12;;;1.57;;
13222;SDS011;6676;45.192;5.722;2023-07-31T06:28:05;2.87;;;1.87;;
13222;SDS011;6676;45.192;5.722;2023-07-31T06:30:56;3.62;;;1.67;;
13222;SDS011;6676;45.192;5.722;2023-07-31T06:33:47;5.10;;;1.67;;
13222;SDS011;6676;45.192;5.722;2023-07-31T06:36:38;4.25;;;1.62;;
13222;SDS011;6676;45.192;5.722;2023-07-31T06:39:30;5.22;;;2.25;;
13222;SDS011;6676;45.192;5.722;2023-07-31T06:42:21;1.95;;;1.40;;
13222;SDS011;6676;45.192;5.722;2023-07-31T06:45:11;3.15;;;1.72;;
13222;SDS011;6676;45.192;5.722;2023-07-31T06:48:03;4.08;;;2.50;;
13222;SDS011;6676;45.192;5.722;2023-07-31T06:50:54;2.92;;;1.70;;
13222;SDS011;6676;45.192;5.722;2023-07-31T06:53:46;2.52;;;1.72;;
13222;SDS011;6676;45.192;5.722;2023-07-31T06:56:37;3.45;;;2.30;;
13222;SDS011;6676;45.192;5.722;2023-07-31T06:59:29;3.85;;;2.50;;
13222;SDS011;6676;45.192;5.722;2023-07-31T07:02:20;5.08;;;2.90;;
13222;SDS011;6676;45.192;5.722;2023-07-31T07:07:50;6.15;;;2.83;;
13222;SDS011;6676;45.192;5.722;2023-07-31T07:10:41;5.40;;;2.70;;
13222;SDS011;6676;45.192;5.722;2023-07-31T07:14:06;4.25;;;2.22;;
13222;SDS011;6676;45.192;5.722;2023-07-31T07:17:02;3.37;;;1.60;;
13222;SDS011;6676;45.192;5.722;2023-07-31T07:19:53;4.90;;;1.80;;
13222;SDS011;6676;45.192;5.722;2023-07-31T07:22:45;3.55;;;1.57;;
13222;SDS011;6676;45.192;5.722;2023-07-31T07:25:37;4.83;;;1.77;;
13222;SDS011;6676;45.192;5.722;2023-07-31T07:28:29;4.47;;;1.72;;
13222;SDS011;6676;45.192;5.722;2023-07-31T07:31:20;2.12;;;1.42;;
13222;SDS011;6676;45.192;5.722;2023-07-31T07:34:11;2.05;;;1.10;;
13222;SDS011;6676;45.192;5.722;2023-07-31T07:37:04;3.40;;;1.32;;
13222;SDS011;6676;45.192;5.722;2023-07-31T07:39:56;5.05;;;1.82;;
13222;SDS011;6676;45.192;5.722;2023-07-31T07:42:49;3.55;;;1.45;;
13222;SDS011;6676;45.192;5.722;2023-07-31T07:45:40;1.72;;;1.10;;
13222;SDS011;6676;45.192;5.722;2023-07-31T07:48:32;2.62;;;1.37;;
13222;SDS011;6676;45.192;5.722;2023-07-31T07:51:23;2.62;;;1.52;;
13222;SDS011;6676;45.192;5.722;2023-07-31T07:54:14;2.58;;;1.25;;
13222;SDS011;6676;45.192;5.722;2023-07-31T07:57:05;2.22;;;1.42;;
13222;SDS011;6676;45.192;5.722;2023-07-31T07:59:57;2.27;;;1.40;;
13222;SDS011;6676;45.192;5.722;2023-07-31T08:02:51;2.80;;;1.22;;
13222;SDS011;6676;45.192;5.722;2023-07-31T08:05:42;2.22;;;1.45;;
13222;SDS011;6676;45.192;5.722;2023-07-31T08:08:34;2.67;;;1.30;;
13222;SDS011;6676;45.192;5.722;2023-07-31T08:11:25;2.83;;;1.35;;
13222;SDS011;6676;45.192;5.722;2023-07-31T08:14:17;2.98;;;1.30;;
13222;SDS011;6676;45.192;5.722;2023-07-31T08:17:08;3.90;;;1.22;;
13222;SDS011;6676;45.192;5.722;2023-07-31T08:20:00;2.47;;;1.50;;
13222;SDS011;6676;45.192;5.722;2023-07-31T08:22:51;3.25;;;1.42;;
13222;SDS011;6676;45.192;5.722;2023-07-31T08:25:42;3.00;;;1.40;;
13222;SDS011;6676;45.192;5.722;2023-07-31T08:28:34;3.40;;;1.50;;
13222;SDS011;6676;45.192;5.722;2023-07-31T08:31:25;3.67;;;1.62;;
13222;SDS011;6676;45.192;5.722;2023-07-31T08:34:17;3.27;;;1.30;;
13222;SDS011;6676;45.192;5.722;2023-07-31T08:37:09;2.72;;;1.50;;
13222;SDS011;6676;45.192;5.722;2023-07-31T08:40:00;3.22;;;1.20;;
13222;SDS011;6676;45.192;5.722;2023-07-31T08:42:53;3.05;;;1.60;;
13222;SDS011;6676;45.192;5.722;2023-07-31T08:45:47;4.47;;;2.25;;
13222;SDS011;6676;45.192;5.722;2023-07-31T08:48:41;2.62;;;1.20;;
13222;SDS011;6676;45.192;5.722;2023-07-31T08:51:34;2.65;;;1.30;;
13222;SDS011;6676;45.192;5.722;2023-07-31T08:54:26;1.90;;;0.98;;
13222;SDS011;6676;45.192;5.722;2023-07-31T08:59:57;2.55;;;1.17;;
13222;SDS011;6676;45.192;5.722;2023-07-31T09:02:51;2.45;;;1.00;;
13222;SDS011;6676;45.192;5.722;2023-07-31T09:08:30;2.25;;;1.10;;
13222;SDS011;6676;45.192;5.722;2023-07-31T09:11:22;2.27;;;1.12;;
13222;SDS011;6676;45.192;5.722;2023-07-31T09:14:18;3.37;;;1.15;;
13222;SDS011;6676;45.192;5.722;2023-07-31T09:17:12;3.60;;;1.25;;
13222;SDS011;6676;45.192;5.722;2023-07-31T09:22:52;2.62;;;1.20;;
13222;SDS011;6676;45.192;5.722;2023-07-31T09:25:44;2.83;;;1.10;;
13222;SDS011;6676;45.192;5.722;2023-07-31T09:28:36;5.12;;;1.40;;
13222;SDS011;6676;45.192;5.722;2023-07-31T09:34:37;2.30;;;1.20;;
13222;SDS011;6676;45.192;5.722;2023-07-31T09:37:29;3.65;;;1.20;;
13222;SDS011;6676;45.192;5.722;2023-07-31T09:40:28;3.45;;;1.22;;
13222;SDS011;6676;45.192;5.722;2023-07-31T09:43:21;2.33;;;1.10;;
13222;SDS011;6676;45.192;5.722;2023-07-31T09:46:13;3.20;;;1.27;;
13222;SDS011;6676;45.192;5.722;2023-07-31T09:49:08;2.17;;;1.22;;
13222;SDS011;6676;45.192;5.722;2023-07-31T09:52:00;3.00;;;1.22;;
13222;SDS011;6676;45.192;5.722;2023-07-31T09:54:53;2.10;;;1.15;;
13222;SDS011;6676;45.192;5.722;2023-07-31T09:57:46;3.45;;;1.60;;
13222;SDS011;6676;45.192;5.722;2023-07-31T10:00:38;3.65;;;1.45;;
13222;SDS011;6676;45.192;5.722;2023-07-31T10:03:30;4.55;;;1.45;;
13222;SDS011;6676;45.192;5.722;2023-07-31T10:09:02;3.95;;;1.32;;
13222;SDS011;6676;45.192;5.722;2023-07-31T10:11:58;2.35;;;1.25;;
13222;SDS011;6676;45.192;5.722;2023-07-31T10:14:49;3.25;;;1.30;;
13222;SDS011;6676;45.192;5.722;2023-07-31T10:17:42;3.17;;;1.45;;
13222;SDS011;6676;45.192;5.722;2023-07-31T10:23:18;2.47;;;1.32;;
13222;SDS011;6676;45.192;5.722;2023-07-31T10:26:09;2.72;;;1.20;;
13222;SDS011;6676;45.192;5.722;2023-07-31T10:29:04;2.15;;;1.20;;
13222;SDS011;6676;45.192;5.722;2023-07-31T10:31:56;1.67;;;1.20;;
13222;SDS011;6676;45.192;5.722;2023-07-31T10:34:48;3.02;;;1.62;;
13222;SDS011;6676;45.192;5.722;2023-07-31T10:37:41;2.47;;;1.30;;
13222;SDS011;6676;45.192;5.722;2023-07-31T10:40:33;1.82;;;1.27;;
13222;SDS011;6676;45.192;5.722;2023-07-31T10:43:24;2.00;;;1.25;;
13222;SDS011;6676;45.192;5.722;2023-07-31T10:49:00;2.10;;;1.20;;
13222;SDS011;6676;45.192;5.722;2023-07-31T10:51:53;2.33;;;1.00;;
13222;SDS011;6676;45.192;5.722;2023-07-31T10:54:45;2.67;;;1.20;;
13222;SDS011;6676;45.192;5.722;2023-07-31T10:57:37;4.03;;;1.55;;
13222;SDS011;6676;45.192;5.722;2023-07-31T11:00:28;3.08;;;1.35;;
13222;SDS011;6676;45.192;5.722;2023-07-31T11:03:20;2.05;;;1.30;;
13222;SDS011;6676;45.192;5.722;2023-07-31T11:06:07;2.42;;;1.55;;
13222;SDS011;6676;45.192;5.722;2023-07-31T11:08:58;2.12;;;1.30;;
13222;SDS011;6676;45.192;5.722;2023-07-31T11:11:50;3.42;;;1.60;;
13222;SDS011;6676;45.192;5.722;2023-07-31T11:14:42;2.67;;;1.30;;
13222;SDS011;6676;45.192;5.722;2023-07-31T11:17:33;2.52;;;1.30;;
13222;SDS011;6676;45.192;5.722;2023-07-31T11:20:25;3.92;;;1.35;;
13222;SDS011;6676;45.192;5.722;2023-07-31T11:23:16;2.55;;;1.17;;
13222;SDS011;6676;45.192;5.722;2023-07-31T11:26:09;3.95;;;1.35;;
13222;SDS011;6676;45.192;5.722;2023-07-31T11:29:00;3.27;;;1.22;;
13222;SDS011;6676;45.192;5.722;2023-07-31T11:31:51;2.20;;;1.20;;
13222;SDS011;6676;45.192;5.722;2023-07-31T11:34:51;4.75;;;1.85;;
13222;SDS011;6676;45.192;5.722;2023-07-31T11:37:43;3.00;;;1.40;;
13222;SDS011;6676;45.192;5.722;2023-07-31T11:40:41;2.70;;;1.50;;
13222;SDS011;6676;45.192;5.722;2023-07-31T11:43:32;2.65;;;1.17;;
13222;SDS011;6676;45.192;5.722;2023-07-31T11:46:25;6.60;;;1.35;;
13222;SDS011;6676;45.192;5.722;2023-07-31T11:49:16;1.80;;;1.10;;
13222;SDS011;6676;45.192;5.722;2023-07-31T11:52:08;1.72;;;1.12;;
13222;SDS011;6676;45.192;5.722;2023-07-31T11:55:00;5.37;;;2.12;;
13222;SDS011;6676;45.192;5.722;2023-07-31T11:57:51;2.95;;;1.20;;
13222;SDS011;6676;45.192;5.722;2023-07-31T12:00:45;2.15;;;1.15;;
13222;SDS011;6676;45.192;5.722;2023-07-31T12:03:38;3.20;;;1.50;;
13222;SDS011;6676;45.192;5.722;2023-07-31T12:06:34;2.40;;;1.20;;
13222;SDS011;6676;45.192;5.722;2023-07-31T12:09:26;3.55;;;1.20;;
13222;SDS011;6676;45.192;5.722;2023-07-31T12:12:20;2.85;;;1.25;;
13222;SDS011;6676;45.192;5.722;2023-07-31T12:15:15;2.20;;;1.20;;
13222;SDS011;6676;45.192;5.722;2023-07-31T12:18:08;3.20;;;1.10;;
13222;SDS011;6676;45.192;5.722;2023-07-31T12:21:01;2.45;;;1.10;;
13222;SDS011;6676;45.192;5.722;2023-07-31T12:23:54;2.47;;;1.30;;
13222;SDS011;6676;45.192;5.722;2023-07-31T12:26:46;3.72;;;1.65;;
13222;SDS011;6676;45.192;5.722;2023-07-31T12:29:38;2.58;;;1.15;;
13222;SDS011;6676;45.192;5.722;2023-07-31T12:32:32;1.95;;;1.00;;
13222;SDS011;6676;45.192;5.722;2023-07-31T12:35:24;3.30;;;1.40;;
13222;SDS011;6676;45.192;5.722;2023-07-31T12:38:18;3.85;;;1.52;;
13222;SDS011;6676;45.192;5.722;2023-07-31T12:41:09;3.87;;;1.20;;
13222;SDS011;6676;45.192;5.722;2023-07-31T12:44:01;2.35;;;1.15;;
13222;SDS011;6676;45.192;5.722;2023-07-31T12:46:52;2.02;;;1.20;;
13222;SDS011;6676;45.192;5.722;2023-07-31T12:49:44;2.77;;;1.32;;
13222;SDS011;6676;45.192;5.722;2023-07-31T12:55:24;2.77;;;1.25;;
13222;SDS011;6676;45.192;5.722;2023-07-31T12:58:16;4.10;;;1.77;;
13222;SDS011;6676;45.192;5.722;2023-07-31T13:01:07;2.83;;;1.40;;
13222;SDS011;6676;45.192;5.722;2023-07-31T13:03:59;2.83;;;1.10;;
13222;SDS011;6676;45.192;5.722;2023-07-31T13:06:50;5.45;;;1.30;;
13222;SDS011;6676;45.192;5.722;2023-07-31T13:09:41;4.33;;;1.32;;
13222;SDS011;6676;45.192;5.722;2023-07-31T13:12:33;1.98;;;1.20;;
13222;SDS011;6676;45.192;5.722;2023-07-31T13:15:24;3.08;;;1.37;;
13222;SDS011;6676;45.192;5.722;2023-07-31T13:18:15;1.95;;;1.07;;
13222;SDS011;6676;45.192;5.722;2023-07-31T13:21:07;2.92;;;1.55;;
13222;SDS011;6676;45.192;5.722;2023-07-31T13:23:58;3.70;;;1.35;;
13222;SDS011;6676;45.192;5.722;2023-07-31T13:26:50;5.12;;;1.30;;
13222;SDS011;6676;45.192;5.722;2023-07-31T13:29:41;2.67;;;1.22;;
13222;SDS011;6676;45.192;5.722;2023-07-31T13:32:33;2.85;;;1.32;;
13222;SDS011;6676;45.192;5.722;2023-07-31T13:35:27;2.80;;;1.27;;
13222;SDS011;6676;45.192;5.722;2023-07-31T13:38:20;3.60;;;1.20;;
13222;SDS011;6676;45.192;5.722;2023-07-31T13:41:11;2.72;;;1.15;;
13222;SDS011;6676;45.192;5.722;2023-07-31T13:44:03;2.65;;;1.22;;
13222;SDS011;6676;45.192;5.722;2023-07-31T13:49:34;3.42;;;1.60;;
13222;SDS011;6676;45.192;5.722;2023-07-31T13:52:27;2.72;;;1.37;;
13222;SDS011;6676;45.192;5.722;2023-07-31T13:55:18;2.02;;;1.20;;
13222;SDS011;6676;45.192;5.722;2023-07-31T13:58:09;1.85;;;1.17;;
13222;SDS011;6676;45.192;5.722;2023-07-31T14:01:01;2.05;;;1.07;;
13222;SDS011;6676;45.192;5.722;2023-07-31T14:03:54;2.37;;;1.07;;
13222;SDS011;6676;45.192;5.722;2023-07-31T14:06:45;4.17;;;1.27;;
13222;SDS011;6676;45.192;5.722;2023-07-31T14:09:38;2.45;;;1.30;;
13222;SDS011;6676;45.192;5.722;2023-07-31T14:12:30;1.22;;;1.10;;
13222;SDS011;6676;45.192;5.722;2023-07-31T14:15:22;3.00;;;1.10;;
13222;SDS011;6676;45.192;5.722;2023-07-31T14:18:14;1.82;;;1.00;;
13222;SDS011;6676;45.192;5.722;2023-07-31T14:21:12;3.70;;;1.30;;
13222;SDS011;6676;45.192;5.722;2023-07-31T14:24:04;2.25;;;1.12;;
13222;SDS011;6676;45.192;5.722;2023-07-31T14:26:55;3.30;;;1.47;;
13222;SDS011;6676;45.192;5.722;2023-07-31T14:29:51;2.98;;;1.30;;
13222;SDS011;6676;45.192;5.722;2023-07-31T14:32:43;1.52;;;1.10;;
13222;SDS011;6676;45.192;5.722;2023-07-31T14:38:35;3.50;;;1.25;;
13222;SDS011;6676;45.192;5.722;2023-07-31T14:41:27;1.80;;;1.05;;
13222;SDS011;6676;45.192;5.722;2023-07-31T14:44:18;1.72;;;1.07;;
13222;SDS011;6676;45.192;5.722;2023-07-31T14:47:10;1.98;;;1.10;;
13222;SDS011;6676;45.192;5.722;2023-07-31T14:50:01;1.80;;;1.20;;
13222;SDS011;6676;45.192;5.722;2023-07-31T14:52:53;2.27;;;1.47;;
13222;SDS011;6676;45.192;5.722;2023-07-31T14:55:45;2.25;;;1.00;;
13222;SDS011;6676;45.192;5.722;2023-07-31T14:58:36;2.15;;;1.30;;
13222;SDS011;6676;45.192;5.722;2023-07-31T15:01:27;1.85;;;1.22;;
13222;SDS011;6676;45.192;5.722;2023-07-31T15:04:18;2.80;;;1.02;;
13222;SDS011;6676;45.192;5.722;2023-07-31T15:07:10;2.40;;;1.15;;
13222;SDS011;6676;45.192;5.722;2023-07-31T15:10:02;2.52;;;1.00;;
13222;SDS011;6676;45.192;5.722;2023-07-31T15:12:55;1.95;;;1.20;;
13222;SDS011;6676;45.192;5.722;2023-07-31T15:15:46;4.55;;;1.40;;
13222;SDS011;6676;45.192;5.722;2023-07-31T15:18:40;1.77;;;1.30;;
13222;SDS011;6676;45.192;5.722;2023-07-31T15:21:31;1.87;;;1.20;;
13222;SDS011;6676;45.192;5.722;2023-07-31T15:24:24;3.45;;;1.27;;
13222;SDS011;6676;45.192;5.722;2023-07-31T15:27:15;2.40;;;1.20;;
13222;SDS011;6676;45.192;5.722;2023-07-31T15:30:08;1.52;;;1.20;;
13222;SDS011;6676;45.192;5.722;2023-07-31T15:33:00;3.05;;;1.17;;
13222;SDS011;6676;45.192;5.722;2023-07-31T15:35:52;1.57;;;1.37;;
13222;SDS011;6676;45.192;5.722;2023-07-31T15:38:43;2.92;;;1.45;;
13222;SDS011;6676;45.192;5.722;2023-07-31T15:41:36;2.67;;;1.42;;
13222;SDS011;6676;45.192;5.722;2023-07-31T15:44:28;1.72;;;1.25;;
13222;SDS011;6676;45.192;5.722;2023-07-31T15:47:20;3.92;;;1.40;;
13222;SDS011;6676;45.192;5.722;2023-07-31T15:50:12;3.20;;;1.75;;
13222;SDS011;6676;45.192;5.722;2023-07-31T15:53:04;2.12;;;1.40;;
13222;SDS011;6676;45.192;5.722;2023-07-31T15:55:55;1.57;;;1.30;;
13222;SDS011;6676;45.192;5.722;2023-07-31T15:58:46;2.98;;;1.57;;
13222;SDS011;6676;45.192;5.722;2023-07-31T16:01:38;2.37;;;1.75;;
13222;SDS011;6676;45.192;5.722;2023-07-31T16:04:31;2.52;;;1.55;;
13222;SDS011;6676;45.192;5.722;2023-07-31T16:07:23;2.65;;;1.70;;
13222;SDS011;6676;45.192;5.722;2023-07-31T16:10:15;2.02;;;1.57;;
13222;SDS011;6676;45.192;5.722;2023-07-31T16:13:06;2.12;;;1.60;;
13222;SDS011;6676;45.192;5.722;2023-07-31T16:15:57;2.72;;;1.98;;
13222;SDS011;6676;45.192;5.722;2023-07-31T16:18:49;2.33;;;1.57;;
13222;SDS011;6676;45.192;5.722;2023-07-31T16:21:40;3.37;;;2.20;;
13222;SDS011;6676;45.192;5.722;2023-07-31T16:24:31;4.80;;;2.47;;
13222;SDS011;6676;45.192;5.722;2023-07-31T16:27:25;3.60;;;2.05;;
13222;SDS011;6676;45.192;5.722;2023-07-31T16:30:16;2.60;;;2.00;;
13222;SDS011;6676;45.192;5.722;2023-07-31T16:33:07;3.27;;;2.42;;
13222;SDS011;6676;45.192;5.722;2023-07-31T16:35:58;3.35;;;2.17;;
13222;SDS011;6676;45.192;5.722;2023-07-31T16:38:50;3.05;;;2.10;;
13222;SDS011;6676;45.192;5.722;2023-07-31T16:41:41;4.95;;;2.22;;
13222;SDS011;6676;45.192;5.722;2023-07-31T16:44:33;2.60;;;1.82;;
13222;SDS011;6676;45.192;5.722;2023-07-31T16:47:25;4.20;;;2.35;;
13222;SDS011;6676;45.192;5.722;2023-07-31T16:50:16;5.30;;;2.25;;
13222;SDS011;6676;45.192;5.722;2023-07-31T16:53:09;3.15;;;2.35;;
13222;SDS011;6676;45.192;5.722;2023-07-31T16:56:01;3.72;;;2.17;;
13222;SDS011;6676;45.192;5.722;2023-07-31T16:58:53;2.58;;;2.22;;
13222;SDS011;6676;45.192;5.722;2023-07-31T17:01:44;2.72;;;2.12;;
13222;SDS011;6676;45.192;5.722;2023-07-31T17:04:36;3.35;;;2.22;;
13222;SDS011;6676;45.192;5.722;2023-07-31T17:07:30;3.90;;;2.47;;
13222;SDS011;6676;45.192;5.722;2023-07-31T17:10:22;3.30;;;2.25;;
13222;SDS011;6676;45.192;5.722;2023-07-31T17:13:13;2.52;;;2.02;;
13222;SDS011;6676;45.192;5.722;2023-07-31T17:16:05;3.47;;;2.37;;
13222;SDS011;6676;45.192;5.722;2023-07-31T17:18:56;2.80;;;2.10;;
13222;SDS011;6676;45.192;5.722;2023-07-31T17:21:49;4.45;;;2.30;;
13222;SDS011;6676;45.192;5.722;2023-07-31T17:24:41;2.85;;;2.15;;
13222;SDS011;6676;45.192;5.722;2023-07-31T17:27:25;2.65;;;2.37;;
13222;SDS011;6676;45.192;5.722;2023-07-31T17:30:16;3.20;;;1.98;;
13222;SDS011;6676;45.192;5.722;2023-07-31T17:33:07;3.72;;;2.50;;
13222;SDS011;6676;45.192;5.722;2023-07-31T17:35:58;3.92;;;2.55;;
13222;SDS011;6676;45.192;5.722;2023-07-31T17:38:50;3.20;;;2.40;;
13222;SDS011;6676;45.192;5.722;2023-07-31T17:41:41;4.60;;;2.40;;
13222;SDS011;6676;45.192;5.722;2023-07-31T17:44:33;3.45;;;2.50;;
13222;SDS011;6676;45.192;5.722;2023-07-31T17:47:24;3.00;;;2.50;;
13222;SDS011;6676;45.192;5.722;2023-07-31T17:50:16;4.50;;;2.75;;
13222;SDS011;6676;45.192;5.722;2023-07-31T17:53:07;4.08;;;2.52;;
13222;SDS011;6676;45.192;5.722;2023-07-31T17:56:01;2.65;;;2.33;;
13222;SDS011;6676;45.192;5.722;2023-07-31T17:58:55;3.87;;;2.62;;
13222;SDS011;6676;45.192;5.722;2023-07-31T18:01:47;4.15;;;2.50;;
13222;SDS011;6676;45.192;5.722;2023-07-31T18:04:38;4.05;;;2.30;;
13222;SDS011;6676;45.192;5.722;2023-07-31T18:07:30;4.35;;;2.72;;
13222;SDS011;6676;45.192;5.722;2023-07-31T18:10:21;2.75;;;2.50;;
13222;SDS011;6676;45.192;5.722;2023-07-31T18:13:15;3.20;;;2.58;;
13222;SDS011;6676;45.192;5.722;2023-07-31T18:16:06;3.42;;;2.70;;
13222;SDS011;6676;45.192;5.722;2023-07-31T18:18:58;4.15;;;2.62;;
13222;SDS011;6676;45.192;5.722;2023-07-31T18:21:49;4.67;;;2.60;;
13222;SDS011;6676;45.192;5.722;2023-07-31T18:24:40;3.33;;;2.52;;
13222;SDS011;6676;45.192;5.722;2023-07-31T18:27:31;4.33;;;2.80;;
13222;SDS011;6676;45.192;5.722;2023-07-31T18:30:23;4.55;;;2.67;;
13222;SDS011;6676;45.192;5.722;2023-07-31T18:33:15;3.98;;;2.47;;
13222;SDS011;6676;45.192;5.722;2023-07-31T18:36:07;3.92;;;2.80;;
13222;SDS011;6676;45.192;5.722;2023-07-31T18:38:58;3.37;;;2.70;;
13222;SDS011;6676;45.192;5.722;2023-07-31T18:41:49;4.87;;;2.92;;
13222;SDS011;6676;45.192;5.722;2023-07-31T18:44:42;3.40;;;2.47;;
13222;SDS011;6676;45.192;5.722;2023-07-31T18:47:28;4.42;;;2.50;;
13222;SDS011;6676;45.192;5.722;2023-07-31T18:50:21;3.70;;;2.42;;
13222;SDS011;6676;45.192;5.722;2023-07-31T18:53:14;3.00;;;2.45;;
13222;SDS011;6676;45.192;5.722;2023-07-31T19:03:33;3.30;;;2.33;;
13222;SDS011;6676;45.192;5.722;2023-07-31T19:06:26;3.17;;;2.35;;
13222;SDS011;6676;45.192;5.722;2023-07-31T19:09:26;2.92;;;2.40;;
13222;SDS011;6676;45.192;5.722;2023-07-31T19:12:17;3.10;;;2.60;;